sensor_id;sensor_type;location;lat;lon;timestamp;temperature;humidity
43414;DHT22;29013;49.676;8.606;2023-04-05T00:02:15;4.5;83.2
43414;DHT22;29013;49.676;8.606;2023-04-05T00:07:41;4.5;83.7
43414;DHT22;29013;49.676;8.606;2023-04-05T00:13:07;4.5;83.4
43414;DHT22;29013;49.676;8.606;2023-04-05T00:18:31;4.6;84.3
43414;DHT22;29013;49.676;8.606;2023-04-05T00:23:58;4.6;84.3
43414;DHT22;29013;49.676;8.606;2023-04-05T00:29:19;4.5;84.1
43414;DHT22;29013;49.676;8.606;2023-04-05T00:34:42;4.5;84.3
43414;DHT22;29013;49.676;8.606;2023-04-05T00:40:11;4.4;84.1
43414;DHT22;29013;49.676;8.606;2023-04-05T00:45:30;4.1;84.6
43414;DHT22;29013;49.676;8.606;2023-04-05T00:50:53;3.8;85.9
43414;DHT22;29013;49.676;8.606;2023-04-05T00:56:33;3.5;87.8
43414;DHT22;29013;49.676;8.606;2023-04-05T01:01:59;3.4;86.4
43414;DHT22;29013;49.676;8.606;2023-04-05T01:07:22;3.3;87.9
43414;DHT22;29013;49.676;8.606;2023-04-05T01:12:44;3.2;88.9
43414;DHT22;29013;49.676;8.606;2023-04-05T01:18:04;3.2;89.4
43414;DHT22;29013;49.676;8.606;2023-04-05T01:23:43;3.3;90.5
43414;DHT22;29013;49.676;8.606;2023-04-05T01:35:06;3.6;90.3
43414;DHT22;29013;49.676;8.606;2023-04-05T01:40:24;3.5;90.6
43414;DHT22;29013;49.676;8.606;2023-04-05T01:46:10;3.4;91.3
43414;DHT22;29013;49.676;8.606;2023-04-05T01:51:36;3.5;90.8
43414;DHT22;29013;49.676;8.606;2023-04-05T01:57:00;3.4;90.3
43414;DHT22;29013;49.676;8.606;2023-04-05T02:02:42;3.0;90.4
43414;DHT22;29013;49.676;8.606;2023-04-05T02:08:06;2.8;90.1
43414;DHT22;29013;49.676;8.606;2023-04-05T02:13:29;2.6;90.5
43414;DHT22;29013;49.676;8.606;2023-04-05T02:18:55;2.5;90.9
43414;DHT22;29013;49.676;8.606;2023-04-05T02:24:19;2.4;91.0
43414;DHT22;29013;49.676;8.606;2023-04-05T02:29:45;2.3;91.2
43414;DHT22;29013;49.676;8.606;2023-04-05T02:35:11;2.3;91.3
43414;DHT22;29013;49.676;8.606;2023-04-05T02:40:36;2.3;91.5
43414;DHT22;29013;49.676;8.606;2023-04-05T02:46:01;2.3;91.8
43414;DHT22;29013;49.676;8.606;2023-04-05T02:51:25;2.5;91.8
43414;DHT22;29013;49.676;8.606;2023-04-05T02:56:50;2.6;91.8
43414;DHT22;29013;49.676;8.606;2023-04-05T03:02:15;2.6;91.9
43414;DHT22;29013;49.676;8.606;2023-04-05T03:07:42;2.7;92.2
43414;DHT22;29013;49.676;8.606;2023-04-05T03:13:08;2.6;92.5
43414;DHT22;29013;49.676;8.606;2023-04-05T03:18:33;2.7;92.6
43414;DHT22;29013;49.676;8.606;2023-04-05T03:23:59;2.5;92.1
43414;DHT22;29013;49.676;8.606;2023-04-05T03:29:26;2.2;92.1
43414;DHT22;29013;49.676;8.606;2023-04-05T03:34:51;2.2;92.2
43414;DHT22;29013;49.676;8.606;2023-04-05T03:40:17;1.9;92.3
43414;DHT22;29013;49.676;8.606;2023-04-05T03:46:07;1.7;92.7
43414;DHT22;29013;49.676;8.606;2023-04-05T03:51:30;1.8;92.0
43414;DHT22;29013;49.676;8.606;2023-04-05T03:56:56;1.6;91.8
43414;DHT22;29013;49.676;8.606;2023-04-05T04:02:15;1.6;91.9
43414;DHT22;29013;49.676;8.606;2023-04-05T04:07:42;1.4;92.0
43414;DHT22;29013;49.676;8.606;2023-04-05T04:13:07;1.4;92.5
43414;DHT22;29013;49.676;8.606;2023-04-05T04:18:29;1.5;92.8
43414;DHT22;29013;49.676;8.606;2023-04-05T04:23:53;1.6;93.2
43414;DHT22;29013;49.676;8.606;2023-04-05T04:29:15;1.8;93.1
43414;DHT22;29013;49.676;8.606;2023-04-05T04:34:39;1.9;93.3
43414;DHT22;29013;49.676;8.606;2023-04-05T04:40:08;2.1;93.2
43414;DHT22;29013;49.676;8.606;2023-04-05T04:45:28;2.3;92.8
43414;DHT22;29013;49.676;8.606;2023-04-05T04:50:52;2.4;92.8
43414;DHT22;29013;49.676;8.606;2023-04-05T04:56:16;2.5;92.8
43414;DHT22;29013;49.676;8.606;2023-04-05T05:01:42;2.6;92.7
43414;DHT22;29013;49.676;8.606;2023-04-05T05:07:06;2.5;92.1
43414;DHT22;29013;49.676;8.606;2023-04-05T05:12:29;2.3;91.7
43414;DHT22;29013;49.676;8.606;2023-04-05T05:17:55;2.1;92.4
43414;DHT22;29013;49.676;8.606;2023-04-05T05:23:19;2.0;92.9
43414;DHT22;29013;49.676;8.606;2023-04-05T05:28:45;1.9;93.4
43414;DHT22;29013;49.676;8.606;2023-04-05T05:34:30;1.9;94.1
43414;DHT22;29013;49.676;8.606;2023-04-05T05:39:55;2.1;93.8
43414;DHT22;29013;49.676;8.606;2023-04-05T05:45:20;2.2;94.0
43414;DHT22;29013;49.676;8.606;2023-04-05T05:50:45;2.2;94.6
43414;DHT22;29013;49.676;8.606;2023-04-05T05:56:08;2.3;95.0
43414;DHT22;29013;49.676;8.606;2023-04-05T06:01:34;2.4;95.0
43414;DHT22;29013;49.676;8.606;2023-04-05T06:06:58;2.6;95.1
43414;DHT22;29013;49.676;8.606;2023-04-05T06:12:24;2.7;94.4
43414;DHT22;29013;49.676;8.606;2023-04-05T06:17:50;2.9;93.9
43414;DHT22;29013;49.676;8.606;2023-04-05T06:23:16;3.1;93.9
43414;DHT22;29013;49.676;8.606;2023-04-05T06:28:43;3.3;93.6
43414;DHT22;29013;49.676;8.606;2023-04-05T06:34:06;3.3;92.9
43414;DHT22;29013;49.676;8.606;2023-04-05T06:39:31;3.4;92.8
43414;DHT22;29013;49.676;8.606;2023-04-05T06:44:56;3.5;93.1
43414;DHT22;29013;49.676;8.606;2023-04-05T06:50:21;3.6;93.1
43414;DHT22;29013;49.676;8.606;2023-04-05T06:55:49;3.6;93.3
43414;DHT22;29013;49.676;8.606;2023-04-05T07:01:14;3.7;93.3
43414;DHT22;29013;49.676;8.606;2023-04-05T07:06:37;3.8;93.5
43414;DHT22;29013;49.676;8.606;2023-04-05T07:12:04;3.9;93.1
43414;DHT22;29013;49.676;8.606;2023-04-05T07:17:29;4.2;92.9
43414;DHT22;29013;49.676;8.606;2023-04-05T07:22:55;4.3;92.9
43414;DHT22;29013;49.676;8.606;2023-04-05T07:28:21;4.5;92.8
43414;DHT22;29013;49.676;8.606;2023-04-05T07:33:44;4.8;92.8
43414;DHT22;29013;49.676;8.606;2023-04-05T07:39:10;4.8;92.2
43414;DHT22;29013;49.676;8.606;2023-04-05T07:44:35;4.8;92.3
43414;DHT22;29013;49.676;8.606;2023-04-05T07:50:02;4.8;91.7
43414;DHT22;29013;49.676;8.606;2023-04-05T07:55:28;5.1;91.4
43414;DHT22;29013;49.676;8.606;2023-04-05T08:00:54;5.3;90.7
43414;DHT22;29013;49.676;8.606;2023-04-05T08:06:47;5.5;91.0
43414;DHT22;29013;49.676;8.606;2023-04-05T08:12:12;5.9;89.7
43414;DHT22;29013;49.676;8.606;2023-04-05T08:17:38;6.0;88.7
43414;DHT22;29013;49.676;8.606;2023-04-05T08:23:03;6.2;87.6
43414;DHT22;29013;49.676;8.606;2023-04-05T08:28:29;6.3;86.2
43414;DHT22;29013;49.676;8.606;2023-04-05T08:33:56;6.5;84.6
43414;DHT22;29013;49.676;8.606;2023-04-05T08:39:20;6.7;83.1
43414;DHT22;29013;49.676;8.606;2023-04-05T08:44:47;6.8;79.6
43414;DHT22;29013;49.676;8.606;2023-04-05T08:50:13;6.9;77.9
43414;DHT22;29013;49.676;8.606;2023-04-05T08:55:37;7.0;76.9
43414;DHT22;29013;49.676;8.606;2023-04-05T09:01:00;7.0;75.7
43414;DHT22;29013;49.676;8.606;2023-04-05T09:06:26;6.8;78.0
43414;DHT22;29013;49.676;8.606;2023-04-05T09:11:51;6.9;78.9
43414;DHT22;29013;49.676;8.606;2023-04-05T09:17:18;7.1;79.5
43414;DHT22;29013;49.676;8.606;2023-04-05T09:22:47;7.2;75.6
43414;DHT22;29013;49.676;8.606;2023-04-05T09:28:13;7.4;75.0
43414;DHT22;29013;49.676;8.606;2023-04-05T09:33:39;7.6;74.0
43414;DHT22;29013;49.676;8.606;2023-04-05T09:39:09;7.7;75.9
43414;DHT22;29013;49.676;8.606;2023-04-05T09:44:53;7.9;73.4
43414;DHT22;29013;49.676;8.606;2023-04-05T09:50:21;8.2;74.6
43414;DHT22;29013;49.676;8.606;2023-04-05T09:55:47;8.3;72.6
43414;DHT22;29013;49.676;8.606;2023-04-05T10:01:24;8.3;70.3
43414;DHT22;29013;49.676;8.606;2023-04-05T10:06:42;8.3;70.0
43414;DHT22;29013;49.676;8.606;2023-04-05T10:12:07;8.2;69.6
43414;DHT22;29013;49.676;8.606;2023-04-05T10:17:36;8.2;71.2
43414;DHT22;29013;49.676;8.606;2023-04-05T10:23:06;8.4;70.0
43414;DHT22;29013;49.676;8.606;2023-04-05T10:28:33;8.5;70.4
43414;DHT22;29013;49.676;8.606;2023-04-05T10:33:59;8.6;68.4
43414;DHT22;29013;49.676;8.606;2023-04-05T10:39:25;8.6;69.7
43414;DHT22;29013;49.676;8.606;2023-04-05T10:44:51;8.7;71.4
43414;DHT22;29013;49.676;8.606;2023-04-05T10:50:29;8.7;69.2
43414;DHT22;29013;49.676;8.606;2023-04-05T10:55:51;8.8;70.2
43414;DHT22;29013;49.676;8.606;2023-04-05T11:01:13;8.8;71.6
43414;DHT22;29013;49.676;8.606;2023-04-05T11:06:33;8.8;69.9
43414;DHT22;29013;49.676;8.606;2023-04-05T11:11:52;9.1;68.6
43414;DHT22;29013;49.676;8.606;2023-04-05T11:17:28;9.4;78.3
43414;DHT22;29013;49.676;8.606;2023-04-05T11:22:55;9.5;73.5
43414;DHT22;29013;49.676;8.606;2023-04-05T11:28:24;9.7;67.0
43414;DHT22;29013;49.676;8.606;2023-04-05T11:33:57;9.5;65.5
43414;DHT22;29013;49.676;8.606;2023-04-05T11:39:31;9.3;66.2
43414;DHT22;29013;49.676;8.606;2023-04-05T11:44:54;9.3;66.5
43414;DHT22;29013;49.676;8.606;2023-04-05T11:50:21;9.4;70.9
43414;DHT22;29013;49.676;8.606;2023-04-05T11:56:09;9.6;72.3
43414;DHT22;29013;49.676;8.606;2023-04-05T12:02:01;10.0;67.5
43414;DHT22;29013;49.676;8.606;2023-04-05T12:07:46;10.2;70.0
43414;DHT22;29013;49.676;8.606;2023-04-05T12:13:10;10.2;65.3
43414;DHT22;29013;49.676;8.606;2023-04-05T12:18:36;10.2;68.5
43414;DHT22;29013;49.676;8.606;2023-04-05T12:23:58;10.3;63.9
43414;DHT22;29013;49.676;8.606;2023-04-05T12:29:23;10.3;62.4
43414;DHT22;29013;49.676;8.606;2023-04-05T12:35:13;10.4;64.4
43414;DHT22;29013;49.676;8.606;2023-04-05T12:40:40;10.6;62.6
43414;DHT22;29013;49.676;8.606;2023-04-05T12:46:20;10.6;65.1
43414;DHT22;29013;49.676;8.606;2023-04-05T12:52:27;10.6;63.8
43414;DHT22;29013;49.676;8.606;2023-04-05T12:57:55;10.6;61.1
43414;DHT22;29013;49.676;8.606;2023-04-05T13:03:19;10.6;60.2
43414;DHT22;29013;49.676;8.606;2023-04-05T13:08:37;10.6;61.6
43414;DHT22;29013;49.676;8.606;2023-04-05T13:14:26;10.7;61.7
43414;DHT22;29013;49.676;8.606;2023-04-05T13:19:52;10.9;59.6
43414;DHT22;29013;49.676;8.606;2023-04-05T13:25:16;11.0;60.1
43414;DHT22;29013;49.676;8.606;2023-04-05T13:30:39;11.0;59.0
43414;DHT22;29013;49.676;8.606;2023-04-05T13:36:06;11.1;65.4
43414;DHT22;29013;49.676;8.606;2023-04-05T13:41:54;11.3;69.1
43414;DHT22;29013;49.676;8.606;2023-04-05T13:47:19;11.6;61.7
43414;DHT22;29013;49.676;8.606;2023-04-05T13:53:01;11.5;58.3
43414;DHT22;29013;49.676;8.606;2023-04-05T13:58:26;11.5;63.4
43414;DHT22;29013;49.676;8.606;2023-04-05T14:03:53;11.6;62.3
43414;DHT22;29013;49.676;8.606;2023-04-05T14:09:18;11.5;56.1
43414;DHT22;29013;49.676;8.606;2023-04-05T14:14:43;11.4;55.2
43414;DHT22;29013;49.676;8.606;2023-04-05T14:20:11;11.4;55.8
43414;DHT22;29013;49.676;8.606;2023-04-05T14:25:30;11.6;58.7
43414;DHT22;29013;49.676;8.606;2023-04-05T14:30:55;11.7;59.5
43414;DHT22;29013;49.676;8.606;2023-04-05T14:36:21;11.9;56.3
43414;DHT22;29013;49.676;8.606;2023-04-05T14:41:48;11.9;55.1
43414;DHT22;29013;49.676;8.606;2023-04-05T14:47:13;11.7;54.0
43414;DHT22;29013;49.676;8.606;2023-04-05T14:52:39;11.7;55.1
43414;DHT22;29013;49.676;8.606;2023-04-05T14:58:06;11.8;54.7
43414;DHT22;29013;49.676;8.606;2023-04-05T15:03:31;11.8;53.0
43414;DHT22;29013;49.676;8.606;2023-04-05T15:08:54;11.8;52.7
43414;DHT22;29013;49.676;8.606;2023-04-05T15:14:22;11.8;52.9
43414;DHT22;29013;49.676;8.606;2023-04-05T15:19:48;12.0;53.7
43414;DHT22;29013;49.676;8.606;2023-04-05T15:25:31;12.2;55.8
43414;DHT22;29013;49.676;8.606;2023-04-05T15:30:55;12.5;52.8
43414;DHT22;29013;49.676;8.606;2023-04-05T15:36:14;12.6;52.0
43414;DHT22;29013;49.676;8.606;2023-04-05T15:41:37;12.7;51.8
43414;DHT22;29013;49.676;8.606;2023-04-05T15:47:02;12.8;54.7
43414;DHT22;29013;49.676;8.606;2023-04-05T15:52:26;12.7;51.4
43414;DHT22;29013;49.676;8.606;2023-04-05T15:57:51;12.7;52.5
43414;DHT22;29013;49.676;8.606;2023-04-05T16:03:15;12.8;52.5
43414;DHT22;29013;49.676;8.606;2023-04-05T16:08:39;12.9;52.3
43414;DHT22;29013;49.676;8.606;2023-04-05T16:14:04;12.9;50.8
43414;DHT22;29013;49.676;8.606;2023-04-05T16:19:29;12.9;52.5
43414;DHT22;29013;49.676;8.606;2023-04-05T16:24:52;12.8;50.9
43414;DHT22;29013;49.676;8.606;2023-04-05T16:30:35;12.7;53.4
43414;DHT22;29013;49.676;8.606;2023-04-05T16:36:23;12.9;52.3
43414;DHT22;29013;49.676;8.606;2023-04-05T16:41:46;12.8;49.7
43414;DHT22;29013;49.676;8.606;2023-04-05T16:47:11;12.5;49.3
43414;DHT22;29013;49.676;8.606;2023-04-05T16:52:37;12.4;50.5
43414;DHT22;29013;49.676;8.606;2023-04-05T16:57:58;12.3;49.5
43414;DHT22;29013;49.676;8.606;2023-04-05T17:03:25;12.1;50.2
43414;DHT22;29013;49.676;8.606;2023-04-05T17:08:49;11.9;50.3
43414;DHT22;29013;49.676;8.606;2023-04-05T17:14:14;11.6;49.8
43414;DHT22;29013;49.676;8.606;2023-04-05T17:19:37;11.4;49.5
43414;DHT22;29013;49.676;8.606;2023-04-05T17:25:04;11.1;49.9
43414;DHT22;29013;49.676;8.606;2023-04-05T17:30:27;10.8;51.0
43414;DHT22;29013;49.676;8.606;2023-04-05T17:35:50;10.6;51.4
43414;DHT22;29013;49.676;8.606;2023-04-05T17:41:13;10.4;51.8
43414;DHT22;29013;49.676;8.606;2023-04-05T17:46:37;10.3;52.7
43414;DHT22;29013;49.676;8.606;2023-04-05T17:52:03;10.2;53.9
43414;DHT22;29013;49.676;8.606;2023-04-05T17:57:27;10.0;53.8
43414;DHT22;29013;49.676;8.606;2023-04-05T18:02:49;9.9;54.4
43414;DHT22;29013;49.676;8.606;2023-04-05T18:08:12;9.7;56.1
43414;DHT22;29013;49.676;8.606;2023-04-05T18:13:38;9.5;59.8
43414;DHT22;29013;49.676;8.606;2023-04-05T18:19:02;9.2;61.2
43414;DHT22;29013;49.676;8.606;2023-04-05T18:24:28;9.0;61.3
43414;DHT22;29013;49.676;8.606;2023-04-05T18:29:53;8.8;64.1
43414;DHT22;29013;49.676;8.606;2023-04-05T18:35:20;8.6;64.1
43414;DHT22;29013;49.676;8.606;2023-04-05T18:40:46;8.3;65.3
43414;DHT22;29013;49.676;8.606;2023-04-05T18:46:44;7.8;66.4
43414;DHT22;29013;49.676;8.606;2023-04-05T18:52:30;7.8;68.4
43414;DHT22;29013;49.676;8.606;2023-04-05T18:57:53;7.9;68.8
43414;DHT22;29013;49.676;8.606;2023-04-05T19:03:18;7.7;69.2
43414;DHT22;29013;49.676;8.606;2023-04-05T19:08:44;7.7;68.6
43414;DHT22;29013;49.676;8.606;2023-04-05T19:14:09;7.6;69.0
43414;DHT22;29013;49.676;8.606;2023-04-05T19:19:34;7.6;69.1
43414;DHT22;29013;49.676;8.606;2023-04-05T19:25:01;7.5;69.3
43414;DHT22;29013;49.676;8.606;2023-04-05T19:30:26;7.2;69.8
43414;DHT22;29013;49.676;8.606;2023-04-05T19:35:49;6.8;70.1
43414;DHT22;29013;49.676;8.606;2023-04-05T19:41:16;6.4;71.2
43414;DHT22;29013;49.676;8.606;2023-04-05T19:47:26;6.2;72.0
43414;DHT22;29013;49.676;8.606;2023-04-05T19:52:50;6.5;72.6
43414;DHT22;29013;49.676;8.606;2023-04-05T19:58:36;6.5;73.5
43414;DHT22;29013;49.676;8.606;2023-04-05T20:04:00;6.6;72.7
43414;DHT22;29013;49.676;8.606;2023-04-05T20:09:44;6.6;73.2
43414;DHT22;29013;49.676;8.606;2023-04-05T20:15:04;6.8;72.2
43414;DHT22;29013;49.676;8.606;2023-04-05T20:20:50;6.8;72.4
43414;DHT22;29013;49.676;8.606;2023-04-05T20:26:12;7.0;71.5
43414;DHT22;29013;49.676;8.606;2023-04-05T20:31:34;6.8;71.0
43414;DHT22;29013;49.676;8.606;2023-04-05T20:37:00;6.4;71.0
43414;DHT22;29013;49.676;8.606;2023-04-05T20:42:25;6.1;71.4
43414;DHT22;29013;49.676;8.606;2023-04-05T20:47:49;5.7;72.2
43414;DHT22;29013;49.676;8.606;2023-04-05T20:53:14;5.7;72.7
43414;DHT22;29013;49.676;8.606;2023-04-05T20:58:54;5.8;73.3
43414;DHT22;29013;49.676;8.606;2023-04-05T21:04:20;6.1;72.2
43414;DHT22;29013;49.676;8.606;2023-04-05T21:09:46;6.2;72.7
43414;DHT22;29013;49.676;8.606;2023-04-05T21:15:10;6.3;73.1
43414;DHT22;29013;49.676;8.606;2023-04-05T21:20:52;6.3;73.2
43414;DHT22;29013;49.676;8.606;2023-04-05T21:26:16;6.5;72.1
43414;DHT22;29013;49.676;8.606;2023-04-05T21:32:07;6.3;72.6
43414;DHT22;29013;49.676;8.606;2023-04-05T21:37:32;6.1;71.0
43414;DHT22;29013;49.676;8.606;2023-04-05T21:43:15;5.9;71.9
43414;DHT22;29013;49.676;8.606;2023-04-05T21:48:42;5.9;71.3
43414;DHT22;29013;49.676;8.606;2023-04-05T21:54:32;5.7;72.4
43414;DHT22;29013;49.676;8.606;2023-04-05T22:00:17;6.0;73.7
43414;DHT22;29013;49.676;8.606;2023-04-05T22:05:38;6.2;72.3
43414;DHT22;29013;49.676;8.606;2023-04-05T22:11:02;6.2;72.5
43414;DHT22;29013;49.676;8.606;2023-04-05T22:16:27;6.2;72.2
43414;DHT22;29013;49.676;8.606;2023-04-05T22:21:52;6.1;72.8
43414;DHT22;29013;49.676;8.606;2023-04-05T22:27:14;6.0;73.0
43414;DHT22;29013;49.676;8.606;2023-04-05T22:32:41;5.6;72.0
43414;DHT22;29013;49.676;8.606;2023-04-05T22:38:06;5.1;73.0
43414;DHT22;29013;49.676;8.606;2023-04-05T22:43:31;4.9;74.0
43414;DHT22;29013;49.676;8.606;2023-04-05T22:48:57;4.7;76.1
43414;DHT22;29013;49.676;8.606;2023-04-05T22:54:38;4.6;77.6
43414;DHT22;29013;49.676;8.606;2023-04-05T23:00:03;4.8;77.8
43414;DHT22;29013;49.676;8.606;2023-04-05T23:05:26;4.8;78.2
43414;DHT22;29013;49.676;8.606;2023-04-05T23:10:51;4.8;79.1
43414;DHT22;29013;49.676;8.606;2023-04-05T23:16:18;4.8;79.2
43414;DHT22;29013;49.676;8.606;2023-04-05T23:21:44;4.8;80.0
43414;DHT22;29013;49.676;8.606;2023-04-05T23:27:09;4.7;78.9
43414;DHT22;29013;49.676;8.606;2023-04-05T23:32:34;4.3;79.3
43414;DHT22;29013;49.676;8.606;2023-04-05T23:37:59;4.0;80.2
43414;DHT22;29013;49.676;8.606;2023-04-05T23:43:25;3.7;80.8
43414;DHT22;29013;49.676;8.606;2023-04-05T23:48:50;3.8;80.9
43414;DHT22;29013;49.676;8.606;2023-04-05T23:54:16;4.0;82.0
43414;DHT22;29013;49.676;8.606;2023-04-05T23:59:41;4.2;81.6
